Bache, Oklahoma
Current Conditions -  °F | °C
As of 4:53 AM on Wednesday 22 Oct 2014 (Local Time) from KMLC Reporting Station
Haze Haze  
Wind Chill: 62°   Ceiling: 9500
Heat Index: 62°   Visibility: 5mi
Dew Point: 60°   Wind: 5mph
Humidity: 93%   Direction: 100°E
Pressure: 30.1"   Gusts: NA
Location:  34.9351°N, 95.8929°W
Report Text: KMLC 220953Z AUTO 10004KT 5SM BR FEW060 SCT070 BKN095 17/16 A3010 RMK AO2 SLP185 T01670156
Loading
Personal Weather Stations






























Interactive Weather Map
Tropical Storm Tracking
New forecast layout! Learn more

10-Day Weather Forecast

Advertisements
Track Severe Weather on mobile